Time;durP1;ratioP1;P1;durP2;ratioP2;P2;SDS_P1;SDS_P2;PMS_P1;PMS_P2;Temp;Humidity;BMP_temperature;BMP_pressure;BME280_temperature;BME280_humidity;BME280_pressure;Samples;Min_cycle;Max_cycle;Signal;HPM_P1;HPM_P2
2022/05/05 00:00:40;;;;;;;8.07;3.70;;;;;;;;;;4975680;28;20030;-67
2022/05/05 00:03:07;;;;;;;4.65;3.50;;;;;;;;;;4988158;28;20034;-67
2022/05/05 00:05:33;;;;;;;6.68;3.80;;;;;;;;;;4980223;28;20107;-67
2022/05/05 00:07:59;;;;;;;10.85;3.70;;;;;;;;;;4980545;28;20067;-67
2022/05/05 00:15:55;;;;;;;13.88;4.20;;;;;;;;;;4982669;28;20070;-68
2022/05/05 00:18:21;;;;;;;6.28;3.42;;;;;;;;;;4980822;28;20022;-67
2022/05/05 00:20:47;;;;;;;9.00;4.47;;;;;;;;;;4975416;28;20027;-67
2022/05/05 00:23:13;;;;;;;7.88;4.60;;;;;;;;;;4977404;28;20033;-67
2022/05/05 00:25:39;;;;;;;9.40;4.38;;;;;;;;;;4983979;28;20030;-67
2022/05/05 00:28:05;;;;;;;9.10;4.15;;;;;;;;;;4983711;28;20052;-67
2022/05/05 00:30:31;;;;;;;6.88;4.00;;;;;;;;;;4976837;28;20039;-67
2022/05/05 00:32:57;;;;;;;6.43;4.00;;;;;;;;;;4987782;28;21106;-67
2022/05/05 00:35:23;;;;;;;6.78;3.83;;;;;;;;;;4978178;28;20038;-67
2022/05/05 00:37:50;;;;;;;9.10;3.55;;;;;;;;;;4978867;28;20034;-67
2022/05/05 00:40:16;;;;;;;5.45;3.40;;;;;;;;;;4972025;28;20034;-67
2022/05/05 00:42:42;;;;;;;4.07;2.72;;;;;;;;;;4982172;28;20023;-67
2022/05/05 00:45:08;;;;;;;5.93;2.70;;;;;;;;;;4972025;28;20114;-68
2022/05/05 00:47:34;;;;;;;4.63;3.00;;;;;;;;;;4972077;28;20396;-67
2022/05/05 00:50:00;;;;;;;6.38;3.70;;;;;;;;;;4981422;28;20496;-67
2022/05/05 00:52:27;;;;;;;6.70;3.28;;;;;;;;;;4990995;28;20015;-67
2022/05/05 00:54:56;;;;;;;5.03;3.13;;;;;;;;;;4990926;28;20062;-67
2022/05/05 00:57:23;;;;;;;7.63;3.35;;;;;;;;;;4991104;28;20023;-67
2022/05/05 00:59:49;;;;;;;5.53;3.20;;;;;;;;;;4990487;28;20054;-67
2022/05/05 01:02:16;;;;;;;5.45;2.67;;;;;;;;;;4991130;28;20097;-67
2022/05/05 01:04:43;;;;;;;8.25;2.85;;;;;;;;;;4982875;28;20037;-67
2022/05/05 01:07:09;;;;;;;7.53;3.03;;;;;;;;;;4971092;28;20396;-67
2022/05/05 01:09:36;;;;;;;5.28;2.85;;;;;;;;;;4971433;28;20059;-68
2022/05/05 01:12:02;;;;;;;5.03;2.65;;;;;;;;;;4970916;28;20031;-67
2022/05/05 01:14:30;;;;;;;5.45;2.78;;;;;;;;;;4971639;28;20027;-67
2022/05/05 01:16:58;;;;;;;7.25;3.10;;;;;;;;;;4971186;28;20034;-67
2022/05/05 01:19:24;;;;;;;9.05;3.30;;;;;;;;;;4984599;28;20080;-67
2022/05/05 01:21:52;;;;;;;8.15;4.68;;;;;;;;;;4974771;28;20023;-67
2022/05/05 01:24:18;;;;;;;6.13;3.13;;;;;;;;;;4986736;28;20023;-67
2022/05/05 01:29:49;;;;;;;7.30;3.58;;;;;;;;;;4974547;28;20034;-67
2022/05/05 01:32:15;;;;;;;8.80;3.22;;;;;;;;;;4987024;28;20506;-67
2022/05/05 01:34:42;;;;;;;4.78;3.00;;;;;;;;;;4978083;28;20034;-67
2022/05/05 01:37:08;;;;;;;6.65;3.10;;;;;;;;;;4979267;28;20084;-67
2022/05/05 01:39:34;;;;;;;4.55;3.20;;;;;;;;;;4985072;28;20031;-67
2022/05/05 01:42:00;;;;;;;4.88;3.25;;;;;;;;;;4977330;28;20037;-67
2022/05/05 01:44:26;;;;;;;5.60;3.25;;;;;;;;;;4981985;28;20125;-67
2022/05/05 01:46:55;;;;;;;5.97;3.42;;;;;;;;;;4979306;28;20037;-67
2022/05/05 01:49:21;;;;;;;9.00;3.63;;;;;;;;;;4977995;28;20062;-67
2022/05/05 01:51:48;;;;;;;8.57;3.80;;;;;;;;;;4986736;28;20069;-67
2022/05/05 01:54:14;;;;;;;10.18;4.00;;;;;;;;;;4974369;28;20027;-67
2022/05/05 01:56:40;;;;;;;7.00;3.40;;;;;;;;;;4983709;28;20027;-67
2022/05/05 01:59:06;;;;;;;9.40;4.10;;;;;;;;;;4980913;28;20022;-67
2022/05/05 02:01:33;;;;;;;10.43;4.50;;;;;;;;;;4976800;28;20031;-68
2022/05/05 02:04:00;;;;;;;6.28;3.53;;;;;;;;;;4986121;28;20037;-67
2022/05/05 02:06:27;;;;;;;5.97;3.45;;;;;;;;;;4975931;28;20021;-67
2022/05/05 02:08:53;;;;;;;7.00;3.72;;;;;;;;;;4981804;28;20581;-68
2022/05/05 02:11:19;;;;;;;9.98;3.80;;;;;;;;;;4982539;28;20065;-67
2022/05/05 02:13:45;;;;;;;8.90;3.28;;;;;;;;;;4974951;28;20042;-68
2022/05/05 02:16:12;;;;;;;8.00;3.50;;;;;;;;;;4986221;28;20113;-67
2022/05/05 02:18:38;;;;;;;9.20;3.00;;;;;;;;;;4976695;28;20377;-67
2022/05/05 02:21:04;;;;;;;4.35;3.08;;;;;;;;;;4980374;28;20033;-67
2022/05/05 02:23:30;;;;;;;8.32;3.17;;;;;;;;;;4983711;28;20476;-67
2022/05/05 02:25:56;;;;;;;5.35;3.33;;;;;;;;;;4973578;28;20031;-68
2022/05/05 02:28:22;;;;;;;8.50;2.95;;;;;;;;;;4986165;28;20427;-67
2022/05/05 02:30:49;;;;;;;5.40;3.65;;;;;;;;;;4977806;28;20018;-67
2022/05/05 02:33:15;;;;;;;6.10;3.22;;;;;;;;;;4978832;28;20034;-67
2022/05/05 02:35:41;;;;;;;7.10;3.30;;;;;;;;;;4984876;28;20072;-67
2022/05/05 02:40:52;;;;;;;6.32;2.78;;;;;;;;;;4989512;28;20079;-67
2022/05/05 02:43:18;;;;;;;6.22;3.47;;;;;;;;;;4978036;28;20026;-68
2022/05/05 02:45:45;;;;;;;8.25;3.17;;;;;;;;;;4970360;28;20031;-67
2022/05/05 02:48:11;;;;;;;7.28;3.00;;;;;;;;;;4968841;28;20033;-67
2022/05/05 02:50:37;;;;;;;6.35;2.90;;;;;;;;;;4970627;28;20039;-67
2022/05/05 02:54:47;;;;;;;6.97;3.15;;;;;;;;;;4970097;28;20037;-67
2022/05/05 02:55:49;;;;;;;6.93;3.38;;;;;;;;;;4969948;28;20081;-67
2022/05/05 02:58:15;;;;;;;6.05;3.08;;;;;;;;;;4969784;28;20049;-67
2022/05/05 03:00:41;;;;;;;6.75;3.40;;;;;;;;;;4970046;28;20030;-67
2022/05/05 03:03:07;;;;;;;5.88;3.47;;;;;;;;;;4969499;28;20027;-67
2022/05/05 03:05:33;;;;;;;5.32;3.38;;;;;;;;;;4969867;28;20045;-67
2022/05/05 03:07:59;;;;;;;8.05;3.38;;;;;;;;;;4969382;28;20058;-67
2022/05/05 03:10:27;;;;;;;6.05;3.03;;;;;;;;;;4973620;28;20030;-67
2022/05/05 03:12:54;;;;;;;4.15;2.88;;;;;;;;;;4985292;28;20034;-67
2022/05/05 03:15:20;;;;;;;6.50;2.97;;;;;;;;;;4978398;28;20070;-68
2022/05/05 03:17:48;;;;;;;4.25;3.17;;;;;;;;;;4983793;28;20391;-67
2022/05/05 03:20:14;;;;;;;5.22;3.13;;;;;;;;;;4972764;28;20042;-67
2022/05/05 03:22:40;;;;;;;9.05;2.75;;;;;;;;;;4984061;28;20060;-67
2022/05/05 03:25:06;;;;;;;6.25;3.03;;;;;;;;;;4978510;28;20445;-67
2022/05/05 03:27:33;;;;;;;4.45;2.67;;;;;;;;;;4976985;28;20030;-68
2022/05/05 03:29:59;;;;;;;6.18;2.97;;;;;;;;;;4985141;28;20113;-67
2022/05/05 03:32:25;;;;;;;6.95;3.10;;;;;;;;;;4972888;28;20026;-67
2022/05/05 03:34:51;;;;;;;6.85;3.17;;;;;;;;;;4982607;28;20053;-67
2022/05/05 03:37:17;;;;;;;4.97;2.67;;;;;;;;;;4979439;28;20185;-67
2022/05/05 03:39:43;;;;;;;5.60;3.22;;;;;;;;;;4975827;28;20079;-67
2022/05/05 03:42:09;;;;;;;8.10;2.95;;;;;;;;;;4971306;28;20023;-67
2022/05/05 03:44:35;;;;;;;6.60;3.03;;;;;;;;;;4973727;28;20027;-67
2022/05/05 03:47:01;;;;;;;5.38;3.25;;;;;;;;;;4981151;28;20019;-68
2022/05/05 03:49:28;;;;;;;5.90;3.33;;;;;;;;;;4980811;28;20042;-67
2022/05/05 03:51:55;;;;;;;5.65;3.35;;;;;;;;;;4974383;28;20030;-67
2022/05/05 03:54:22;;;;;;;4.57;3.10;;;;;;;;;;4985072;28;20454;-67
2022/05/05 03:56:48;;;;;;;7.00;3.65;;;;;;;;;;4975223;28;20034;-67
2022/05/05 03:59:14;;;;;;;6.25;3.38;;;;;;;;;;4980603;28;20488;-67
2022/05/05 04:01:40;;;;;;;5.13;3.08;;;;;;;;;;4985637;28;20077;-67
2022/05/05 04:04:07;;;;;;;5.28;3.45;;;;;;;;;;4975756;28;20516;-67
2022/05/05 04:06:33;;;;;;;8.63;3.88;;;;;;;;;;4988429;28;20026;-67
2022/05/05 04:08:59;;;;;;;8.40;3.85;;;;;;;;;;4979455;28;20046;-67
2022/05/05 04:11:26;;;;;;;6.82;3.55;;;;;;;;;;4981643;28;20092;-68
2022/05/05 04:13:52;;;;;;;6.82;3.38;;;;;;;;;;4986438;28;20026;-67
2022/05/05 04:16:18;;;;;;;7.60;3.58;;;;;;;;;;4975493;28;20034;-68
2022/05/05 04:18:44;;;;;;;6.20;3.42;;;;;;;;;;4988774;28;20410;-67
2022/05/05 04:21:10;;;;;;;7.55;4.40;;;;;;;;;;4983191;28;20489;-67
2022/05/05 04:23:37;;;;;;;8.27;4.40;;;;;;;;;;4974888;28;20030;-67
2022/05/05 04:26:04;;;;;;;9.00;4.82;;;;;;;;;;4988062;28;20027;-67
2022/05/05 04:28:30;;;;;;;6.95;4.40;;;;;;;;;;4975145;28;20086;-67
2022/05/05 04:30:56;;;;;;;7.15;5.10;;;;;;;;;;4985320;28;20359;-67
2022/05/05 04:33:23;;;;;;;12.73;4.90;;;;;;;;;;4981855;28;20083;-67
2022/05/05 04:35:49;;;;;;;9.48;5.53;;;;;;;;;;4978279;28;20035;-67
2022/05/05 04:38:15;;;;;;;12.77;5.78;;;;;;;;;;4975842;28;20041;-67
2022/05/05 04:40:41;;;;;;;9.02;5.05;;;;;;;;;;4991329;28;20506;-67
2022/05/05 04:43:08;;;;;;;11.30;5.05;;;;;;;;;;4982817;28;20033;-67
2022/05/05 04:45:34;;;;;;;10.27;4.70;;;;;;;;;;4971866;28;20385;-67
2022/05/05 04:48:00;;;;;;;7.00;4.78;;;;;;;;;;4971944;28;20050;-68
2022/05/05 04:50:26;;;;;;;7.30;4.80;;;;;;;;;;4973165;28;20026;-67
2022/05/05 04:52:52;;;;;;;8.80;5.03;;;;;;;;;;4976675;28;20031;-68
2022/05/05 04:55:18;;;;;;;9.23;4.90;;;;;;;;;;4973835;28;20030;-67
2022/05/05 04:57:45;;;;;;;10.10;4.57;;;;;;;;;;4979340;28;20065;-68
2022/05/05 05:00:11;;;;;;;8.88;4.40;;;;;;;;;;5013656;28;20048;-67
2022/05/05 05:02:37;;;;;;;12.07;4.78;;;;;;;;;;5010098;28;20062;-67
2022/05/05 05:05:03;;;;;;;8.48;4.53;;;;;;;;;;4975769;28;20088;-66
2022/05/05 05:07:29;;;;;;;8.63;4.35;;;;;;;;;;4974596;28;20042;-66
2022/05/05 05:09:55;;;;;;;7.97;4.10;;;;;;;;;;4979096;28;20099;-66
2022/05/05 05:12:22;;;;;;;9.00;4.45;;;;;;;;;;4983427;28;20586;-66
2022/05/05 05:14:48;;;;;;;8.02;4.50;;;;;;;;;;4972370;28;20524;-66
2022/05/05 05:17:15;;;;;;;8.10;4.45;;;;;;;;;;4983843;28;20437;-66
2022/05/05 05:19:41;;;;;;;7.53;4.43;;;;;;;;;;4970917;28;20515;-66
2022/05/05 05:22:07;;;;;;;7.63;4.53;;;;;;;;;;4977126;28;20430;-66
2022/05/05 05:24:33;;;;;;;7.82;4.47;;;;;;;;;;4977516;28;20035;-66
2022/05/05 05:26:59;;;;;;;8.98;4.95;;;;;;;;;;4978952;28;20022;-66
2022/05/05 05:29:26;;;;;;;8.30;4.72;;;;;;;;;;4973100;28;20396;-66
2022/05/05 05:31:52;;;;;;;7.20;4.32;;;;;;;;;;4980409;28;20033;-69
2022/05/05 05:34:18;;;;;;;8.90;4.50;;;;;;;;;;4981610;28;20156;-66
2022/05/05 05:36:44;;;;;;;7.05;4.32;;;;;;;;;;4977981;28;20066;-65
2022/05/05 05:39:10;;;;;;;6.75;3.85;;;;;;;;;;4970269;28;20030;-66
2022/05/05 05:41:36;;;;;;;15.57;5.00;;;;;;;;;;4981232;28;20023;-66
2022/05/05 05:44:02;;;;;;;8.25;4.90;;;;;;;;;;4983088;28;20049;-66
2022/05/05 05:46:28;;;;;;;8.70;4.18;;;;;;;;;;4975777;28;20035;-66
2022/05/05 05:48:56;;;;;;;10.73;4.40;;;;;;;;;;4983602;28;20487;-66
2022/05/05 05:51:24;;;;;;;8.93;4.20;;;;;;;;;;4968739;28;20540;-66
2022/05/05 05:53:50;;;;;;;10.00;5.20;;;;;;;;;;4968949;28;20033;-66
2022/05/05 05:56:16;;;;;;;10.48;3.90;;;;;;;;;;4975798;28;20049;-66
2022/05/05 05:58:43;;;;;;;6.72;4.57;;;;;;;;;;4969819;28;20051;-65
2022/05/05 06:01:09;;;;;;;13.95;4.47;;;;;;;;;;4980609;28;20034;-65
2022/05/05 06:03:53;;;;;;;10.10;4.75;;;;;;;;;;4970087;28;20049;-65
2022/05/05 06:06:20;;;;;;;5.97;4.03;;;;;;;;;;4981749;28;20030;-67
2022/05/05 06:08:46;;;;;;;9.15;4.63;;;;;;;;;;4979723;28;20137;-65
2022/05/05 06:11:14;;;;;;;6.28;3.58;;;;;;;;;;4986558;28;20581;-65
2022/05/05 06:13:40;;;;;;;8.45;3.80;;;;;;;;;;4980353;28;20103;-66
2022/05/05 06:16:06;;;;;;;8.63;3.17;;;;;;;;;;4972655;28;20042;-66
2022/05/05 06:18:33;;;;;;;7.25;4.50;;;;;;;;;;4983150;28;20026;-66
2022/05/05 06:21:00;;;;;;;8.35;3.50;;;;;;;;;;4973662;28;20019;-66
2022/05/05 06:23:26;;;;;;;4.57;2.92;;;;;;;;;;4989028;28;20036;-66
2022/05/05 06:25:52;;;;;;;7.25;2.78;;;;;;;;;;4990189;28;20054;-66
2022/05/05 06:28:18;;;;;;;5.97;2.70;;;;;;;;;;4990351;28;20030;-66
2022/05/05 06:30:44;;;;;;;5.80;2.70;;;;;;;;;;4989889;28;20484;-66
2022/05/05 06:33:10;;;;;;;6.03;2.50;;;;;;;;;;4990508;28;20034;-66
2022/05/05 06:35:37;;;;;;;3.90;2.92;;;;;;;;;;4990015;28;20026;-66
2022/05/05 06:38:03;;;;;;;5.93;3.15;;;;;;;;;;4990078;28;20480;-66
2022/05/05 06:40:29;;;;;;;5.47;3.10;;;;;;;;;;4990087;28;20113;-66
2022/05/05 06:42:56;;;;;;;4.65;2.72;;;;;;;;;;4973832;28;20018;-66
2022/05/05 06:45:22;;;;;;;4.00;2.53;;;;;;;;;;4970365;28;20045;-66
2022/05/05 06:47:49;;;;;;;4.95;3.15;;;;;;;;;;4969165;28;20452;-66
2022/05/05 06:50:21;;;;;;;6.20;2.40;;;;;;;;;;4985098;28;20034;-66
2022/05/05 06:52:47;;;;;;;2.92;2.17;;;;;;;;;;4989611;28;20034;-66
2022/05/05 06:55:14;;;;;;;2.92;2.28;;;;;;;;;;4971898;28;20027;-66
2022/05/05 06:57:40;;;;;;;6.15;1.88;;;;;;;;;;4970272;28;20035;-66
2022/05/05 07:00:06;;;;;;;5.30;2.20;;;;;;;;;;4970531;28;20034;-66
2022/05/05 07:02:32;;;;;;;1.70;1.50;;;;;;;;;;4970697;28;20042;-66
2022/05/05 07:07:43;;;;;;;2.03;1.83;;;;;;;;;;4969844;28;20038;-66
2022/05/05 07:12:54;;;;;;;2.65;1.83;;;;;;;;;;4970211;28;20035;-66
2022/05/05 07:15:20;;;;;;;3.88;2.50;;;;;;;;;;4970093;28;20034;-66
2022/05/05 07:17:48;;;;;;;2.58;1.75;;;;;;;;;;4969934;28;20035;-66
2022/05/05 07:20:14;;;;;;;2.85;2.20;;;;;;;;;;4970221;28;20044;-66
2022/05/05 07:22:40;;;;;;;3.97;1.10;;;;;;;;;;4969774;28;20027;-66
2022/05/05 07:25:07;;;;;;;2.40;1.42;;;;;;;;;;4970066;28;20119;-66
2022/05/05 07:27:33;;;;;;;2.63;1.48;;;;;;;;;;4970204;28;20100;-66
2022/05/05 07:29:59;;;;;;;3.63;1.55;;;;;;;;;;4969766;28;20039;-66
2022/05/05 07:32:25;;;;;;;6.40;1.80;;;;;;;;;;4970071;28;20034;-66
2022/05/05 07:34:51;;;;;;;1.98;1.50;;;;;;;;;;4972218;28;20038;-66
2022/05/05 07:37:18;;;;;;;2.63;1.80;;;;;;;;;;4973139;28;20038;-66
2022/05/05 07:39:44;;;;;;;2.90;1.58;;;;;;;;;;4973307;28;20388;-66
2022/05/05 07:42:10;;;;;;;3.47;1.73;;;;;;;;;;4975990;28;20072;-66
2022/05/05 07:44:36;;;;;;;4.05;1.27;;;;;;;;;;4992693;28;20034;-65
2022/05/05 07:47:02;;;;;;;1.30;1.10;;;;;;;;;;4992493;28;20400;-66
2022/05/05 07:49:28;;;;;;;2.13;1.40;;;;;;;;;;4992645;28;20058;-66
2022/05/05 07:51:55;;;;;;;2.35;1.58;;;;;;;;;;4992196;28;20658;-66
2022/05/05 07:54:38;;;;;;;6.13;1.20;;;;;;;;;;4992679;28;20109;-66
2022/05/05 07:57:08;;;;;;;1.90;1.38;;;;;;;;;;4992519;28;20101;-66
2022/05/05 07:59:35;;;;;;;1.40;1.20;;;;;;;;;;4992615;28;20030;-66
2022/05/05 08:02:03;;;;;;;1.98;1.40;;;;;;;;;;4992241;28;20030;-66
2022/05/05 08:04:29;;;;;;;1.45;1.05;;;;;;;;;;4992355;28;20549;-66
2022/05/05 08:06:55;;;;;;;1.80;1.00;;;;;;;;;;4991907;28;20089;-66
2022/05/05 08:09:21;;;;;;;2.70;1.05;;;;;;;;;;4992216;28;20054;-66
2022/05/05 08:11:47;;;;;;;2.85;1.05;;;;;;;;;;4992201;28;20475;-66
2022/05/05 08:14:13;;;;;;;3.25;1.00;;;;;;;;;;4992305;28;20046;-66
2022/05/05 08:16:40;;;;;;;1.95;1.00;;;;;;;;;;4992262;28;20126;-66
2022/05/05 08:19:06;;;;;;;1.75;1.02;;;;;;;;;;4991744;28;20045;-66
2022/05/05 08:21:33;;;;;;;2.00;0.75;;;;;;;;;;4991808;28;20026;-66
2022/05/05 08:29:29;;;;;;;0.90;0.82;;;;;;;;;;4991909;28;20107;-66
2022/05/05 08:31:55;;;;;;;2.78;0.80;;;;;;;;;;4991675;28;20031;-66
2022/05/05 08:34:22;;;;;;;1.30;0.70;;;;;;;;;;4992357;28;20023;-66
2022/05/05 08:36:48;;;;;;;2.95;0.82;;;;;;;;;;4991474;28;20035;-66
2022/05/05 08:39:14;;;;;;;0.82;0.80;;;;;;;;;;4991794;28;20031;-66
2022/05/05 08:41:40;;;;;;;2.45;0.90;;;;;;;;;;4991760;28;20492;-66
2022/05/05 08:44:08;;;;;;;2.35;0.85;;;;;;;;;;4991207;28;20500;-66
2022/05/05 08:46:34;;;;;;;1.30;0.95;;;;;;;;;;4991894;28;20479;-66
2022/05/05 08:49:04;;;;;;;1.25;0.80;;;;;;;;;;4990057;28;20394;-66
2022/05/05 08:51:34;;;;;;;1.35;1.10;;;;;;;;;;4991681;28;20034;-66
2022/05/05 08:54:02;;;;;;;1.88;0.95;;;;;;;;;;4991206;28;20026;-66
2022/05/05 08:56:28;;;;;;;1.13;1.00;;;;;;;;;;4991484;28;20106;-66
2022/05/05 08:58:55;;;;;;;1.27;0.98;;;;;;;;;;4991519;28;20070;-66
2022/05/05 09:01:21;;;;;;;2.83;0.85;;;;;;;;;;4991720;28;20065;-66
2022/05/05 09:03:47;;;;;;;1.15;1.08;;;;;;;;;;4991194;28;20511;-66
2022/05/05 09:06:13;;;;;;;1.98;0.88;;;;;;;;;;4991343;28;20106;-66
2022/05/05 09:08:39;;;;;;;1.13;1.02;;;;;;;;;;4991217;28;20526;-66
2022/05/05 09:11:06;;;;;;;2.88;0.85;;;;;;;;;;4991260;28;20030;-66
2022/05/05 09:13:36;;;;;;;1.10;0.88;;;;;;;;;;4991303;28;20045;-66
2022/05/05 09:16:06;;;;;;;1.55;1.13;;;;;;;;;;4991048;28;20041;-66
2022/05/05 09:18:33;;;;;;;1.70;1.00;;;;;;;;;;4990892;28;20077;-66
2022/05/05 09:21:00;;;;;;;3.17;1.10;;;;;;;;;;4991086;28;20022;-66
2022/05/05 09:23:31;;;;;;;2.47;1.10;;;;;;;;;;4991177;28;20022;-66
2022/05/05 09:25:57;;;;;;;2.42;1.00;;;;;;;;;;4990907;28;20023;-66
2022/05/05 09:28:24;;;;;;;1.42;0.90;;;;;;;;;;4991071;28;20038;-66
2022/05/05 09:30:52;;;;;;;1.40;1.25;;;;;;;;;;4991095;28;20030;-66
2022/05/05 09:33:35;;;;;;;3.15;1.08;;;;;;;;;;4990549;28;20030;-66
2022/05/05 09:36:02;;;;;;;2.35;1.27;;;;;;;;;;4990507;28;20030;-66
2022/05/05 09:38:47;;;;;;;2.17;1.15;;;;;;;;;;4990937;28;20034;-66
2022/05/05 09:41:13;;;;;;;1.75;1.17;;;;;;;;;;4990711;28;20058;-66
2022/05/05 09:43:39;;;;;;;2.78;1.30;;;;;;;;;;4990942;28;20034;-66
2022/05/05 09:46:27;;;;;;;2.10;1.27;;;;;;;;;;4990634;28;20034;-66
2022/05/05 09:48:53;;;;;;;2.03;1.20;;;;;;;;;;4990291;28;20479;-66
2022/05/05 09:51:19;;;;;;;2.00;1.20;;;;;;;;;;4990753;28;20105;-66
2022/05/05 09:59:19;;;;;;;3.90;1.77;;;;;;;;;;4990719;28;20041;-66
2022/05/05 10:01:50;;;;;;;2.58;1.20;;;;;;;;;;4990380;28;20042;-66
2022/05/05 10:04:17;;;;;;;2.80;1.30;;;;;;;;;;4990545;28;20155;-66
2022/05/05 10:06:43;;;;;;;1.80;1.02;;;;;;;;;;4990547;28;20091;-66
2022/05/05 10:09:12;;;;;;;1.70;1.55;;;;;;;;;;4990104;28;20133;-66
2022/05/05 10:11:38;;;;;;;3.47;1.67;;;;;;;;;;4990472;28;20037;-66
2022/05/05 10:14:05;;;;;;;2.20;1.67;;;;;;;;;;4990392;28;20038;-66
2022/05/05 10:16:31;;;;;;;2.97;1.50;;;;;;;;;;4990074;28;20061;-66
2022/05/05 10:19:06;;;;;;;2.38;1.30;;;;;;;;;;4990463;28;20495;-66
2022/05/05 10:21:44;;;;;;;2.35;1.55;;;;;;;;;;4983582;28;20045;-65
2022/05/05 10:24:25;;;;;;;4.72;1.65;;;;;;;;;;4988616;28;20034;-65
2022/05/05 10:26:53;;;;;;;3.90;2.15;;;;;;;;;;4988565;28;20038;-66
2022/05/05 10:29:31;;;;;;;2.65;1.70;;;;;;;;;;4969951;28;20140;-66
2022/05/05 10:32:07;;;;;;;3.22;1.60;;;;;;;;;;4988568;28;20026;-66
2022/05/05 10:34:33;;;;;;;2.72;1.80;;;;;;;;;;4988853;28;20079;-66
2022/05/05 10:37:01;;;;;;;4.35;1.63;;;;;;;;;;4973539;28;20050;-66
2022/05/05 10:39:41;;;;;;;2.17;1.65;;;;;;;;;;4980879;28;20491;-66
2022/05/05 10:42:14;;;;;;;3.42;1.80;;;;;;;;;;4976751;28;20046;-66
2022/05/05 10:45:00;;;;;;;2.15;1.67;;;;;;;;;;4979382;28;20039;-66
2022/05/05 10:47:26;;;;;;;2.65;1.70;;;;;;;;;;4969394;28;20035;-66
2022/05/05 10:49:54;;;;;;;3.53;1.90;;;;;;;;;;4969811;28;20085;-66
2022/05/05 10:52:29;;;;;;;10.80;5.10;;;;;;;;;;4969478;28;20031;-66
2022/05/05 10:54:56;;;;;;;2.45;1.60;;;;;;;;;;4969601;28;20496;-66
2022/05/05 10:57:25;;;;;;;2.92;1.80;;;;;;;;;;4986458;28;20030;-66
2022/05/05 11:00:10;;;;;;;2.05;1.40;;;;;;;;;;4988838;28;20022;-66
2022/05/05 11:02:36;;;;;;;1.83;1.50;;;;;;;;;;4989062;28;20492;-66
2022/05/05 11:05:21;;;;;;;1.92;1.50;;;;;;;;;;4988909;28;20014;-66
2022/05/05 11:07:51;;;;;;;4.35;1.77;;;;;;;;;;4989522;28;20038;-66
2022/05/05 11:10:36;;;;;;;2.53;1.48;;;;;;;;;;4992108;28;20046;-66
2022/05/05 11:13:03;;;;;;;2.58;1.63;;;;;;;;;;4991664;28;20049;-66
2022/05/05 11:21:32;;;;;;;3.10;1.42;;;;;;;;;;4992249;28;20035;-66
2022/05/05 11:24:02;;;;;;;2.45;1.70;;;;;;;;;;4992140;28;20022;-66
2022/05/05 11:26:32;;;;;;;6.88;1.83;;;;;;;;;;4991931;28;20027;-66
2022/05/05 11:28:59;;;;;;;2.72;1.83;;;;;;;;;;4991990;28;20030;-66
2022/05/05 11:31:30;;;;;;;4.10;1.63;;;;;;;;;;4991821;28;20391;-66
2022/05/05 11:33:57;;;;;;;2.28;1.65;;;;;;;;;;4991984;28;20088;-66
2022/05/05 11:36:33;;;;;;;1.50;1.40;;;;;;;;;;4991781;28;20102;-66
2022/05/05 11:38:59;;;;;;;2.75;1.30;;;;;;;;;;4991527;28;20034;-66
2022/05/05 11:41:27;;;;;;;2.67;1.58;;;;;;;;;;4992253;28;20068;-66
2022/05/05 11:46:38;;;;;;;3.88;1.50;;;;;;;;;;4973494;28;20042;-65
2022/05/05 11:49:05;;;;;;;3.28;1.60;;;;;;;;;;4992071;28;20038;-66
2022/05/05 11:51:32;;;;;;;1.80;1.48;;;;;;;;;;4977951;28;20499;-66
2022/05/05 11:54:06;;;;;;;7.63;1.63;;;;;;;;;;4973518;28;20027;-66
2022/05/05 11:56:33;;;;;;;2.47;1.50;;;;;;;;;;4973373;28;20107;-66
2022/05/05 12:01:59;;;;;;;2.40;1.83;;;;;;;;;;4972957;28;20027;-66
2022/05/05 12:04:25;;;;;;;2.55;1.80;;;;;;;;;;4972880;28;20031;-66
2022/05/05 12:06:51;;;;;;;2.25;1.42;;;;;;;;;;4972910;28;20110;-66
2022/05/05 12:09:20;;;;;;;4.13;1.40;;;;;;;;;;4972414;28;20047;-66
2022/05/05 12:11:46;;;;;;;4.07;1.58;;;;;;;;;;4972822;28;20034;-66
2022/05/05 12:14:13;;;;;;;3.38;1.80;;;;;;;;;;4971294;28;20038;-66
2022/05/05 12:16:40;;;;;;;2.97;1.98;;;;;;;;;;4972693;28;20031;-66
2022/05/05 12:19:13;;;;;;;2.75;1.67;;;;;;;;;;4972025;28;20500;-66
2022/05/05 12:21:54;;;;;;;4.20;1.88;;;;;;;;;;4972628;28;20035;-66
2022/05/05 12:24:23;;;;;;;4.93;2.20;;;;;;;;;;4972549;28;20039;-65
2022/05/05 12:26:51;;;;;;;5.13;1.70;;;;;;;;;;4972355;28;20574;-66
2022/05/05 12:29:19;;;;;;;3.70;2.00;;;;;;;;;;4972261;28;20111;-66
2022/05/05 12:31:55;;;;;;;2.42;1.80;;;;;;;;;;4972742;28;20070;-66
2022/05/05 12:34:27;;;;;;;2.88;2.13;;;;;;;;;;4972332;28;20027;-66
2022/05/05 12:37:11;;;;;;;3.38;1.83;;;;;;;;;;4972598;28;20503;-66
2022/05/05 12:39:57;;;;;;;4.32;1.90;;;;;;;;;;4972424;28;20520;-66
2022/05/05 12:42:24;;;;;;;2.78;1.90;;;;;;;;;;4971949;28;20034;-66
2022/05/05 12:44:51;;;;;;;4.25;1.70;;;;;;;;;;4986493;28;20080;-66
2022/05/05 12:47:23;;;;;;;2.08;1.80;;;;;;;;;;4991433;28;20527;-66
2022/05/05 12:49:49;;;;;;;2.38;1.40;;;;;;;;;;4991903;28;20117;-66
2022/05/05 13:00:30;;;;;;;3.05;2.35;;;;;;;;;;4991449;28;20494;-66
2022/05/05 13:02:57;;;;;;;7.40;2.28;;;;;;;;;;4991582;28;20019;-66
2022/05/05 13:05:23;;;;;;;4.40;2.10;;;;;;;;;;4991281;28;20041;-66
2022/05/05 13:07:49;;;;;;;4.28;1.92;;;;;;;;;;4991418;28;20034;-66
2022/05/05 13:10:15;;;;;;;4.40;2.22;;;;;;;;;;4990911;28;20416;-66
2022/05/05 13:12:41;;;;;;;3.85;2.58;;;;;;;;;;4991381;28;20030;-66
2022/05/05 13:15:08;;;;;;;4.70;2.22;;;;;;;;;;4991367;28;20034;-66
2022/05/05 13:17:36;;;;;;;4.00;2.10;;;;;;;;;;4990953;28;20087;-66
2022/05/05 13:20:02;;;;;;;5.47;2.45;;;;;;;;;;4991357;28;20029;-66
2022/05/05 13:22:29;;;;;;;5.25;3.42;;;;;;;;;;4990991;28;20027;-66
2022/05/05 13:24:55;;;;;;;6.15;2.70;;;;;;;;;;4990950;28;20041;-65
2022/05/05 13:27:21;;;;;;;4.03;2.50;;;;;;;;;;4990965;28;20084;-66
2022/05/05 13:29:47;;;;;;;26.98;4.85;;;;;;;;;;4991207;28;20410;-66
2022/05/05 13:32:14;;;;;;;4.70;2.88;;;;;;;;;;4990952;28;20046;-66
2022/05/05 13:34:40;;;;;;;3.92;2.42;;;;;;;;;;4990812;28;20065;-66
2022/05/05 13:37:06;;;;;;;4.97;2.97;;;;;;;;;;4990965;28;20027;-66
2022/05/05 13:39:32;;;;;;;3.30;2.53;;;;;;;;;;4990588;28;20022;-65
2022/05/05 13:41:58;;;;;;;3.38;2.70;;;;;;;;;;4991122;28;20057;-66
2022/05/05 13:44:26;;;;;;;3.45;2.97;;;;;;;;;;4990643;28;20064;-66
2022/05/05 13:46:52;;;;;;;5.88;2.75;;;;;;;;;;4990806;28;20027;-65
2022/05/05 13:49:18;;;;;;;5.25;2.53;;;;;;;;;;4990659;28;20031;-65
2022/05/05 13:51:44;;;;;;;4.05;2.50;;;;;;;;;;4990904;28;20427;-66
2022/05/05 13:54:11;;;;;;;4.57;3.08;;;;;;;;;;4990670;28;20049;-66
2022/05/05 13:56:37;;;;;;;5.78;2.70;;;;;;;;;;4989266;28;20446;-66
2022/05/05 13:59:03;;;;;;;5.50;2.95;;;;;;;;;;4990736;28;20030;-66
2022/05/05 14:01:29;;;;;;;5.78;2.58;;;;;;;;;;4990307;28;20064;-66
2022/05/05 14:03:55;;;;;;;4.50;3.10;;;;;;;;;;4990677;28;20034;-66
2022/05/05 14:06:21;;;;;;;5.88;2.67;;;;;;;;;;4990463;28;20029;-66
2022/05/05 14:14:17;;;;;;;4.55;3.22;;;;;;;;;;4990438;28;20023;-66
2022/05/05 14:16:44;;;;;;;4.22;3.05;;;;;;;;;;4990249;28;20062;-66
2022/05/05 14:19:10;;;;;;;4.55;3.30;;;;;;;;;;4990552;28;20031;-66
2022/05/05 14:21:36;;;;;;;3.22;2.60;;;;;;;;;;4990046;28;20032;-66
2022/05/05 14:24:02;;;;;;;4.78;2.78;;;;;;;;;;4990163;28;20061;-66
2022/05/05 14:26:28;;;;;;;6.50;2.63;;;;;;;;;;4990212;28;20079;-66
2022/05/05 14:28:55;;;;;;;2.55;2.33;;;;;;;;;;4990369;28;20496;-65
2022/05/05 14:31:21;;;;;;;3.17;2.33;;;;;;;;;;4990075;28;20022;-66
2022/05/05 14:33:47;;;;;;;5.43;3.13;;;;;;;;;;4990308;28;20365;-66
2022/05/05 14:36:13;;;;;;;4.68;2.60;;;;;;;;;;4990156;28;20034;-66
2022/05/05 14:38:39;;;;;;;5.82;2.80;;;;;;;;;;4989547;28;20087;-66
2022/05/05 14:41:05;;;;;;;5.13;3.10;;;;;;;;;;4990247;28;20023;-66
2022/05/05 14:43:32;;;;;;;3.83;2.75;;;;;;;;;;4989164;28;20026;-66
2022/05/05 14:45:58;;;;;;;4.78;2.35;;;;;;;;;;4989987;28;20022;-66
2022/05/05 14:48:24;;;;;;;4.55;2.28;;;;;;;;;;4989902;28;20027;-66
2022/05/05 14:50:50;;;;;;;4.60;2.53;;;;;;;;;;4989876;28;20030;-65
2022/05/05 14:53:16;;;;;;;4.38;2.63;;;;;;;;;;4989765;28;20088;-66
2022/05/05 14:55:42;;;;;;;4.20;2.75;;;;;;;;;;4989803;28;20079;-66
2022/05/05 14:58:08;;;;;;;3.10;2.20;;;;;;;;;;4989954;28;20038;-66
2022/05/05 15:00:35;;;;;;;5.65;3.13;;;;;;;;;;4989720;28;20105;-66
2022/05/05 15:03:01;;;;;;;6.70;2.72;;;;;;;;;;4988707;28;20074;-66
2022/05/05 15:05:28;;;;;;;6.72;3.00;;;;;;;;;;4988667;28;20603;-65
2022/05/05 15:07:54;;;;;;;6.25;3.58;;;;;;;;;;4983732;28;20027;-65
2022/05/05 15:10:20;;;;;;;5.40;2.80;;;;;;;;;;4974584;28;20030;-65
2022/05/05 15:12:46;;;;;;;5.47;3.53;;;;;;;;;;4989344;28;20030;-65
2022/05/05 15:15:12;;;;;;;4.07;2.97;;;;;;;;;;4980273;28;20446;-66
2022/05/05 15:17:38;;;;;;;7.40;3.60;;;;;;;;;;4980070;28;20035;-66
2022/05/05 15:20:08;;;;;;;4.78;2.90;;;;;;;;;;4978455;28;20408;-66
2022/05/05 15:22:34;;;;;;;7.18;3.33;;;;;;;;;;4978547;28;20515;-66
2022/05/05 15:25:08;;;;;;;5.45;3.20;;;;;;;;;;4978167;28;20526;-66
2022/05/05 15:27:35;;;;;;;4.25;2.85;;;;;;;;;;4979469;28;20049;-66
2022/05/05 15:30:01;;;;;;;5.07;3.03;;;;;;;;;;4980215;28;20022;-66
2022/05/05 15:32:30;;;;;;;6.95;2.92;;;;;;;;;;4978611;28;20046;-66
2022/05/05 15:35:03;;;;;;;4.68;3.22;;;;;;;;;;4978280;28;20106;-66
2022/05/05 15:37:30;;;;;;;4.97;4.00;;;;;;;;;;4977836;28;20053;-66